• Join FlightAware (Why Join?)
  • Login
  • US Flag 
12:32PM EDT


 

Airport Tracker/Info


-or-


 

Live Flight TrackerFlight Track Log ✈ TOK700 ✈ 05-May-2012 ✈ AYKY - YBCS / CNS

Flight Track Log - Related Links

Times and Time Zones

All times are in EDT time to prevent confusion due to time zone crossing. See the TOK700 flight status page for this flight to view local times or setup timezone preferences in your user account.

Time Position Orientation Groundspeed Altitude Reporting Facility
EDT Latitude Longitude Course Direction KTS MPH feet Rate Location/Type
03:26AM -5.6818 150.2692 206° Southwest  Level FlightAware Approximate
03:27AM -5.7314 150.2418 206° Southwest  Level FlightAware Approximate
03:28AM -5.7810 150.2144 206° Southwest  Level FlightAware Approximate
03:29AM -5.8306 150.1870 206° Southwest  Level FlightAware Approximate
03:30AM -5.8802 150.1596 206° Southwest  Level FlightAware Approximate
03:31AM -5.9297 150.1322 206° Southwest  Level FlightAware Approximate
03:32AM -5.9793 150.1047 206° Southwest  Level FlightAware Approximate
03:33AM -6.0289 150.0773 206° Southwest  Level FlightAware Approximate
03:34AM -6.0785 150.0499 206° Southwest  Level FlightAware Approximate
03:35AM -6.1280 150.0224 206° Southwest  Level FlightAware Approximate
03:36AM -6.1776 149.9950 206° Southwest  Level FlightAware Approximate
03:37AM -6.2272 149.9675 206° Southwest  Level FlightAware Approximate
03:38AM -6.2767 149.9401 206° Southwest  Level FlightAware Approximate
03:39AM -6.3263 149.9126 206° Southwest  Level FlightAware Approximate
03:40AM -6.3759 149.8852 206° Southwest  Level FlightAware Approximate
03:41AM -6.4254 149.8577 206° Southwest  Level FlightAware Approximate
03:42AM -6.4750 149.8302 206° Southwest  Level FlightAware Approximate
03:43AM -6.5245 149.8028 206° Southwest  Level FlightAware Approximate
03:44AM -6.5741 149.7753 206° Southwest  Level FlightAware Approximate
03:45AM -6.6237 149.7478 206° Southwest  Level FlightAware Approximate
03:46AM -6.6732 149.7203 206° Southwest  Level FlightAware Approximate
03:47AM -6.7228 149.6928 206° Southwest  Level FlightAware Approximate
03:48AM -6.7723 149.6653 206° Southwest  Level FlightAware Approximate
03:49AM -6.8219 149.6378 206° Southwest  Level FlightAware Approximate
03:50AM -6.8714 149.6102 206° Southwest  Level FlightAware Approximate
03:51AM -6.9210 149.5827 206° Southwest  Level FlightAware Approximate
03:52AM -6.9705 149.5552 206° Southwest  Level FlightAware Approximate
03:53AM -7.0201 149.5277 206° Southwest  Level FlightAware Approximate
03:54AM -7.0685 149.5007 206° Southwest  Level FlightAware Approximate
03:55AM -7.1169 149.4738 206° Southwest  Level FlightAware Approximate
03:56AM -7.1654 149.4469 206° Southwest  Level FlightAware Approximate
03:57AM -7.2138 149.4199 206° Southwest  Level FlightAware Approximate
03:58AM -7.2622 149.3929 206° Southwest  Level FlightAware Approximate
03:59AM -7.3107 149.3660 206° Southwest  Level FlightAware Approximate
04:00AM -7.3591 149.3390 206° Southwest  Level FlightAware Approximate
04:01AM -7.4075 149.3121 206° Southwest  Level FlightAware Approximate
04:02AM -7.4560 149.2851 206° Southwest  Level FlightAware Approximate
04:03AM -7.5044 149.2581 206° Southwest  Level FlightAware Approximate
04:04AM -7.5528 149.2311 206° Southwest  Level FlightAware Approximate
04:05AM -7.6012 149.2041 206° Southwest  Level FlightAware Approximate
04:06AM -7.6497 149.1771 206° Southwest  Level FlightAware Approximate
04:07AM -7.6981 149.1501 205° Southwest  Level FlightAware Approximate
04:08AM -7.7465 149.1231 205° Southwest  Level FlightAware Approximate
04:09AM -7.7949 149.0961 205° Southwest  Level FlightAware Approximate
04:10AM -7.8433 149.0690 205° Southwest  Level FlightAware Approximate
04:11AM -7.8917 149.0420 205° Southwest  Level FlightAware Approximate
04:12AM -7.9401 149.0150 205° Southwest  Level FlightAware Approximate
04:13AM -7.9886 148.9879 205° Southwest  Level FlightAware Approximate
04:14AM -8.0370 148.9609 205° Southwest  Level FlightAware Approximate
04:15AM -8.0854 148.9339 205° Southwest  Level FlightAware Approximate
04:16AM -8.1338 148.9068 205° Southwest  Level FlightAware Approximate
04:17AM -8.1822 148.8797 205° Southwest  Level FlightAware Approximate
04:18AM -8.2306 148.8526 205° Southwest  Level FlightAware Approximate
04:19AM -8.2790 148.8256 205° Southwest  Level FlightAware Approximate
04:20AM -8.3274 148.7985 205° Southwest  Level FlightAware Approximate
04:21AM -8.3758 148.7714 205° Southwest  Level FlightAware Approximate
04:22AM -8.4242 148.7443 205° Southwest  Level FlightAware Approximate
04:23AM -8.4726 148.7171 205° Southwest  Level FlightAware Approximate
04:24AM -8.5210 148.6900 205° Southwest  Level FlightAware Approximate
04:25AM -8.5693 148.6629 205° Southwest  Level FlightAware Approximate
04:26AM -8.6177 148.6358 205° Southwest  Level FlightAware Approximate
04:27AM -8.6661 148.6086 205° Southwest  Level FlightAware Approximate
04:28AM -8.7145 148.5815 205° Southwest  Level FlightAware Approximate
04:29AM -8.7629 148.5544 205° Southwest  Level FlightAware Approximate
04:30AM -8.8151 148.5359 205° Southwest  Level FlightAware Approximate
04:31AM -8.8673 148.5174 205° Southwest  Level FlightAware Approximate
04:32AM -8.9195 148.4989 205° Southwest  Level FlightAware Approximate
04:33AM -8.9718 148.4803 205° Southwest  Level FlightAware Approximate
04:34AM -9.0240 148.4618 205° Southwest  Level FlightAware Approximate
04:35AM -9.0762 148.4433 205° Southwest  Level FlightAware Approximate
04:36AM -9.1284 148.4248 205° Southwest  Level FlightAware Approximate
04:37AM -9.1806 148.4062 205° Southwest  Level FlightAware Approximate
04:38AM -9.2328 148.3877 205° Southwest  Level FlightAware Approximate
04:39AM -9.2850 148.3692 205° Southwest  Level FlightAware Approximate
04:40AM -9.3372 148.3506 206° Southwest  Level FlightAware Approximate
04:41AM -9.3894 148.3321 206° Southwest  Level FlightAware Approximate
04:42AM -9.4417 148.3136 206° Southwest  Level FlightAware Approximate
04:43AM -9.4939 148.2950 206° Southwest  Level FlightAware Approximate
04:44AM -9.5461 148.2764 206° Southwest  Level FlightAware Approximate
04:45AM -9.5983 148.2578 206° Southwest  Level FlightAware Approximate
04:46AM -9.6505 148.2393 206° Southwest  Level FlightAware Approximate
04:47AM -9.7027 148.2207 206° Southwest  Level FlightAware Approximate
04:48AM -9.7549 148.2021 206° Southwest  Level FlightAware Approximate
04:49AM -9.8071 148.1835 206° Southwest  Level FlightAware Approximate
04:50AM -9.8593 148.1649 206° Southwest  Level FlightAware Approximate
04:51AM -9.9115 148.1463 207° Southwest  Level FlightAware Approximate
04:52AM -9.9637 148.1277 207° Southwest  Level FlightAware Approximate
04:53AM -10.0159 148.1091 207° Southwest  Level FlightAware Approximate
04:54AM -10.0681 148.0904 207° Southwest  Level FlightAware Approximate
04:55AM -10.1203 148.0718 207° Southwest  Level FlightAware Approximate
04:56AM -10.1725 148.0531 207° Southwest  Level FlightAware Approximate
04:57AM -10.2247 148.0345 207° Southwest  Level FlightAware Approximate
04:58AM -12.0000 146.7167 191° South 18,000  Level Aus ATC (Calculated)
04:59AM -12.0589 146.7051 191° South  Level FlightAware Approximate
05:00AM -12.0746 146.7020 191° South 18,000  Level Aus ATC (Calculated)
05:00AM -12.1469 146.6878 191° South 18,000 180 Level Aus ATC (Calculated)
05:01AM -12.1469 146.6878 191° South 18,000 180 Level Aus ATC (Calculated)
05:02AM -12.2055 146.6763 191° South  Level FlightAware Approximate
05:03AM -12.2596 146.6656 191° South  Level FlightAware Approximate
05:04AM -12.3137 146.6550 191° South  Level FlightAware Approximate
05:04AM -12.4271 146.6326 191° South 18,000  Level Aus ATC (Calculated)
05:06AM -12.5110 146.6161 191° South  Level FlightAware Approximate
05:07AM -12.5650 146.6054 191° South  Level FlightAware Approximate
05:08AM -12.6191 146.5948 191° South  Level FlightAware Approximate
05:09AM -12.6732 146.5841 191° South  Level FlightAware Approximate
05:10AM -12.7273 146.5734 191° South  Level FlightAware Approximate
05:11AM -12.7814 146.5627 191° South  Level FlightAware Approximate
05:12AM -12.8355 146.5520 191° South  Level FlightAware Approximate
05:13AM -12.8896 146.5413 190° South  Level FlightAware Approximate
05:14AM -13.1013 146.4993 180° South 18,000  Level Aus ATC (Calculated)
05:15AM -13.1644 146.4868 13° North  Level FlightAware Approximate
05:16AM -13.2622 146.4674 12° North 18,000  Level Aus ATC (Calculated)
05:17AM -13.1103 146.4994 190° South 248 285 22,000 2,460 Climbing Aus ATC (RADAR)
05:18AM -13.2144 146.4814 191° South 246 283 22,000  Level Aus ATC (RADAR)
05:19AM -13.2834 146.4678 192° South 248 285 22,000  Level Aus ATC (RADAR)
05:20AM -13.3232 146.4588 193° South 248 285 22,000  Level Aus ATC (RADAR)
05:20AM -13.3572 146.4509 192° South 246 283 22,000  Level Aus ATC (RADAR)
05:21AM -13.4028 146.4411 190° South 246 283 22,000  Level Aus ATC (RADAR)
05:21AM -13.4374 146.4349 191° South 248 285 22,000  Level Aus ATC (RADAR)
05:22AM -13.4771 146.4268 191° South 247 284 22,000  Level Aus ATC (RADAR)
05:23AM -13.5348 146.4157 190° South 248 285 22,000  Level Aus ATC (RADAR)
05:23AM -13.5866 146.4067 193° South 247 284 22,000  Level Aus ATC (RADAR)
05:24AM -13.6261 146.3975 191° South 246 283 22,000  Level Aus ATC (RADAR)
05:25AM -13.6718 146.3886 194° South 247 284 22,000  Level Aus ATC (RADAR)
05:25AM -13.7114 146.3784 191° South 248 285 22,000  Level Aus ATC (RADAR)
05:26AM -13.7514 146.3706 191° South 246 283 22,000  Level Aus ATC (RADAR)
05:26AM -13.7857 146.3636 189° South 248 285 22,000  Level Aus ATC (RADAR)
05:27AM -13.8261 146.3568 191° South 248 285 22,000  Level Aus ATC (RADAR)
05:28AM -13.8773 146.3462 190° South 247 284 22,000  Level Aus ATC (RADAR)
05:28AM -13.9118 146.3398 193° South 248 285 22,000  Level Aus ATC (RADAR)
05:29AM -13.9515 146.3304 194° South 248 285 22,000  Level Aus ATC (RADAR)
05:29AM -13.9909 146.3203 183° South 247 284 22,000  Level Aus ATC (RADAR)
05:30AM -14.0272 146.3180 202° Southwest 259 298 22,000  Level Aus ATC (RADAR)
05:31AM -14.1026 146.2868 195° South 247 284 22,000  Level Aus ATC (RADAR)
05:31AM -14.1359 146.2777 193° South 244 281 22,000  Level Aus ATC (RADAR)
05:32AM -14.1752 146.2680 196° South 244 281 22,000  Level Aus ATC (RADAR)
05:33AM -14.2422 146.2480 195° South 248 285 22,000  Level Aus ATC (RADAR)
05:34AM -14.3034 146.2307 195° South 246 283 22,000  Level Aus ATC (RADAR)
05:35AM -14.3537 146.2169 195° South 244 281 22,000  Level Aus ATC (RADAR)
05:36AM -14.4267 146.1969 195° South 248 285 22,000  Level Aus ATC (RADAR)
05:37AM -14.4997 146.1767 197° South 247 284 22,000  Level Aus ATC (RADAR)
05:37AM -14.5384 146.1641 196° South 246 283 22,000  Level Aus ATC (RADAR)
05:38AM -14.5839 146.1510 194° South 251 289 22,000  Level Aus ATC (RADAR)
05:39AM -14.6529 146.1336 195° South 253 291 22,000  Level Aus ATC (RADAR)
05:40AM -14.6989 146.1212 197° South 252 290 22,000  Level Aus ATC (RADAR)
05:41AM -14.7675 146.1000 194° South 254 292 22,000  Level Aus ATC (RADAR)
05:41AM -14.8137 146.0885 197° South 253 291 22,000  Level Aus ATC (RADAR)
05:42AM -14.8764 146.0691 195° South 254 292 22,000  Level Aus ATC (RADAR)
05:43AM -14.9394 146.0516 195° South 252 290 22,000  Level Aus ATC (RADAR)
05:44AM -15.0023 146.0338 195° South 251 289 22,000  Level Aus ATC (RADAR)
05:45AM -15.0540 146.0198 195° South 253 291 22,000  Level Aus ATC (RADAR)
05:46AM -15.1226 146.0005 196° South 252 290 22,000  Level Aus ATC (RADAR)
05:47AM -15.1683 145.9874 194° South 254 292 22,000  Level Aus ATC (RADAR)
05:47AM -15.2024 145.9785 195° South 251 289 22,000  Level Aus ATC (RADAR)
05:48AM -15.2426 145.9674 195° South 251 289 22,000  Level Aus ATC (RADAR)
05:48AM -15.2885 145.9546 196° South 253 291 22,000  Level Aus ATC (RADAR)
05:49AM -15.3288 145.9429 194° South 253 291 22,000  Level Aus ATC (RADAR)
05:49AM -15.3692 145.9322 195° South 255 293 22,000 -180 Level Aus ATC (RADAR)
05:50AM -15.4157 145.9195 196° South 259 298 21,800 -360 Descending Aus ATC (RADAR)
05:51AM -15.4569 145.9072 195° South 263 303 21,600 -360 Descending Aus ATC (RADAR)
05:51AM -15.4992 145.8957 196° South 267 307 21,400 -420 Descending Aus ATC (RADAR)
05:52AM -15.5476 145.8816 195° South 270 311 21,100 -480 Descending Aus ATC (RADAR)
05:52AM -15.5843 145.8710 195° South 273 314 20,900 -420 Descending Aus ATC (RADAR)
05:53AM -15.6579 145.8506 195° South 274 315 20,500 -420 Descending Aus ATC (RADAR)
05:54AM -15.7319 145.8304 196° South 275 316 20,100 -480 Descending Aus ATC (RADAR)
05:55AM -15.7874 145.8139 195° South 274 315 19,700 -540 Descending Aus ATC (RADAR)
05:56AM -15.8562 145.7942 195° South 278 320 19,200 -660 Descending Aus ATC (RADAR)
05:57AM -15.9133 145.7781 194° South 283 326 18,600 -900 Descending Aus ATC (RADAR)
05:57AM -15.9530 145.7675 196° South 292 336 18,100 -1,200 Descending Aus ATC (RADAR)
05:58AM -16.0066 145.7520 196° South 302 348 17,200 -1,500 Descending Aus ATC (RADAR)
05:59AM -16.0959 145.7256 195° South 302 348 15,500 -1,620 Descending Aus ATC (RADAR)
06:00AM -16.1426 145.7127 194° South 296 341 14,600 -1,620 Descending Aus ATC (RADAR)
06:00AM -16.1827 145.7022 195° South 295 339 13,800 -1,560 Descending Aus ATC (RADAR)
06:01AM -16.2299 145.6894 196° South 299 344 12,900 -1,500 Descending Aus ATC (RADAR)
06:01AM -16.2763 145.6760 196° South 293 337 12,100 -1,620 Descending Aus ATC (RADAR)
06:02AM -16.3277 145.6605 196° South 288 331 11,000 -1,620 Descending Aus ATC (RADAR)
06:03AM -16.3659 145.6492 195° South 285 328 10,300 -1,500 Descending Aus ATC (RADAR)
06:03AM -16.4293 145.6315 195° South 278 320 9,000 -1,500 Descending Aus ATC (RADAR)
06:04AM -16.4999 145.6114 196° South 259 298 7,600 -1,440 Descending Aus ATC (RADAR)
06:05AM -16.5396 145.5997 161° South 256 295 6,800 -1,200 Descending Aus ATC (RADAR)
06:06AM -16.5796 145.6140 156° South 222 255 6,100 -1,080 Descending Aus ATC (RADAR)
06:06AM -16.6085 145.6275 157° South 197 227 5,500 -1,140 Descending Aus ATC (RADAR)
06:07AM -16.6373 145.6400 156° South 192 221 4,800 -1,080 Descending Aus ATC (RADAR)
06:07AM -16.6651 145.6526 157° South 186 214 4,300 -960 Descending Aus ATC (RADAR)
06:08AM -16.6922 145.6649 157° South 181 208 3,700 -1,080 Descending Aus ATC (RADAR)
06:09AM -16.7209 145.6779 156° South 167 192 3,000 -900 Descending Aus ATC (RADAR)
06:09AM -16.7453 145.6890 157° South 165 190 2,600 -840 Descending Aus ATC (RADAR)
06:10AM -16.7649 145.6979 157° South 151 174 2,100 -780 Descending Aus ATC (RADAR)
06:10AM -16.7853 145.7071 156° South 119 137 1,700 -600 Descending Aus ATC (RADAR)
06:12AM -16.8163 145.7213 157° South 102 117 1,100 -600 Descending Aus ATC (RADAR)
06:12AM -16.8338 145.7291 156° South 103 119 700 -600 Descending Aus ATC (RADAR)
06:13AM -16.8486 145.7358 156° South 100 115 400 -540 Descending Aus ATC (RADAR)